createdAt,value
2023-03-02T00:01:47.360Z,130.53
2023-03-02T00:04:19.295Z,120.57
2023-03-02T00:06:48.609Z,210.00
2023-03-02T00:09:18.145Z,99.40
2023-03-02T00:11:46.836Z,93.97
2023-03-02T00:14:16.775Z,92.53
2023-03-02T00:16:45.017Z,117.63
2023-03-02T00:19:13.445Z,197.60
2023-03-02T00:21:41.878Z,118.40
2023-03-02T00:24:10.469Z,149.50
2023-03-02T00:26:39.262Z,75.50
2023-03-02T00:29:07.701Z,78.13
2023-03-02T00:31:39.157Z,65.87
2023-03-02T00:34:07.718Z,45.30
2023-03-02T00:36:36.326Z,81.83
2023-03-02T00:39:05.567Z,98.80
2023-03-02T00:41:34.430Z,89.57
2023-03-02T00:44:02.896Z,81.63
2023-03-02T00:46:31.833Z,85.50
2023-03-02T00:49:02.622Z,48.90
2023-03-02T00:51:31.306Z,71.47
2023-03-02T00:54:02.696Z,53.20
2023-03-02T00:56:31.553Z,102.60
2023-03-02T00:59:00.339Z,112.80
2023-03-02T01:01:29.258Z,104.77
2023-03-02T01:03:57.661Z,78.03
2023-03-02T01:06:27.858Z,55.37
2023-03-02T01:08:56.941Z,78.57
2023-03-02T01:11:25.234Z,55.93
2023-03-02T01:13:53.538Z,153.13
2023-03-02T01:16:22.313Z,69.73
2023-03-02T01:18:50.944Z,88.20
2023-03-02T01:21:19.430Z,54.87
2023-03-02T01:23:49.698Z,65.83
2023-03-02T01:26:18.324Z,72.80
2023-03-02T01:28:46.865Z,108.77
2023-03-02T01:31:15.788Z,149.70
2023-03-02T01:33:44.332Z,101.50
2023-03-02T01:36:13.029Z,156.97
2023-03-02T01:38:41.833Z,107.60
2023-03-02T01:45:44.053Z,57.30
2023-03-02T01:48:15.831Z,185.70
2023-03-02T01:50:45.307Z,171.20
2023-03-02T01:53:15.261Z,67.17
2023-03-02T01:55:44.522Z,176.20
2023-03-02T01:58:14.060Z,86.77
2023-03-02T02:00:43.225Z,101.40
2023-03-02T02:03:15.848Z,58.90
2023-03-02T02:05:45.517Z,122.70
2023-03-02T02:08:14.036Z,105.37
2023-03-02T02:10:43.357Z,91.53
2023-03-02T02:13:13.018Z,215.13
2023-03-02T02:15:41.967Z,95.43
2023-03-02T02:18:10.771Z,147.33
2023-03-02T02:20:44.901Z,78.03
2023-03-02T02:23:26.965Z,46.10
2023-03-02T02:26:08.599Z,68.30
2023-03-02T02:28:40.905Z,95.60
2023-03-02T02:31:15.184Z,146.20
2023-03-02T02:33:45.873Z,111.97
2023-03-02T02:36:18.448Z,117.40
2023-03-02T02:38:49.160Z,84.80
2023-03-02T02:41:23.940Z,108.93
2023-03-02T02:43:52.939Z,88.73
2023-03-02T02:46:21.746Z,55.23
2023-03-02T02:48:51.208Z,213.93
2023-03-02T02:51:26.701Z,67.97
2023-03-02T02:54:00.654Z,147.13
2023-03-02T02:56:35.904Z,51.77
2023-03-02T02:59:08.031Z,42.83
2023-03-02T03:01:36.997Z,52.50
2023-03-02T03:04:07.260Z,157.17
2023-03-02T03:06:42.100Z,88.23
2023-03-02T03:09:13.426Z,62.97
2023-03-02T03:11:54.042Z,86.47
2023-03-02T03:14:26.589Z,74.37
2023-03-02T03:16:56.464Z,70.63
2023-03-02T03:19:27.749Z,91.23
2023-03-02T03:21:59.547Z,73.10
2023-03-02T03:24:31.990Z,167.57
2023-03-02T03:27:05.475Z,210.07
2023-03-02T03:29:37.624Z,91.10
2023-03-02T03:32:08.451Z,71.73
2023-03-02T03:34:40.934Z,46.73
2023-03-02T03:37:18.651Z,76.87
2023-03-02T03:39:47.860Z,101.00
2023-03-02T03:42:19.251Z,113.27
2023-03-02T03:44:48.600Z,87.50
2023-03-02T03:47:17.294Z,78.93
2023-03-02T03:49:45.962Z,78.67
2023-03-02T03:52:14.920Z,62.10
2023-03-02T03:54:43.933Z,116.90
2023-03-02T03:57:12.306Z,99.83
2023-03-02T03:59:42.769Z,72.53
2023-03-02T04:02:12.313Z,94.00
2023-03-02T04:04:46.475Z,136.63
2023-03-02T04:07:18.040Z,98.73
2023-03-02T04:09:47.692Z,93.63
2023-03-02T04:12:17.318Z,147.93
2023-03-02T04:14:54.243Z,160.50
2023-03-02T04:17:22.903Z,190.07
2023-03-02T04:19:51.607Z,116.07
2023-03-02T04:22:20.191Z,105.93
2023-03-02T04:24:49.579Z,146.43
2023-03-02T04:27:18.692Z,90.50
2023-03-02T04:29:48.428Z,82.47
2023-03-02T04:32:18.597Z,139.50
2023-03-02T04:34:52.599Z,80.30
2023-03-02T04:37:21.121Z,72.57
2023-03-02T04:39:51.695Z,51.13
2023-03-02T04:42:20.144Z,104.60
2023-03-02T04:44:48.509Z,79.20
2023-03-02T04:47:18.821Z,184.10
2023-03-02T04:49:47.216Z,118.00
2023-03-02T04:52:15.601Z,90.10
2023-03-02T04:54:44.250Z,87.37
2023-03-02T04:57:12.664Z,176.43
2023-03-02T04:59:41.688Z,72.67
2023-03-02T05:02:10.233Z,157.07
2023-03-02T05:04:42.337Z,192.90
2023-03-02T05:07:10.986Z,181.33
2023-03-02T05:09:39.472Z,78.30
2023-03-02T05:12:08.503Z,143.00
2023-03-02T05:14:36.967Z,105.90
2023-03-02T05:17:05.315Z,258.33
2023-03-02T05:19:33.882Z,231.83
2023-03-02T05:22:03.724Z,104.97
2023-03-02T05:24:32.294Z,135.97
2023-03-02T05:27:00.595Z,161.90
2023-03-02T05:29:29.240Z,105.30
2023-03-02T05:31:57.924Z,128.50
2023-03-02T05:34:26.562Z,78.07
2023-03-02T05:36:55.022Z,59.63
2023-03-02T05:39:24.926Z,143.43
2023-03-02T05:41:53.300Z,66.13
2023-03-02T05:44:21.855Z,95.03
2023-03-02T05:46:50.231Z,207.93
2023-03-02T05:49:18.747Z,143.93
2023-03-02T05:51:47.229Z,47.27
2023-03-02T05:54:15.942Z,115.57
2023-03-02T05:56:45.801Z,55.67
2023-03-02T05:59:14.209Z,62.77
2023-03-02T06:01:42.759Z,57.10
2023-03-02T06:04:11.619Z,66.50
2023-03-02T06:06:40.265Z,116.03
2023-03-02T06:09:08.750Z,73.30
2023-03-02T06:11:37.349Z,82.73
2023-03-02T06:14:07.393Z,128.37
2023-03-02T06:16:37.299Z,119.87
2023-03-02T06:19:05.842Z,112.57
2023-03-02T06:21:34.643Z,80.20
2023-03-02T06:24:03.015Z,75.47
2023-03-02T06:26:31.821Z,169.10
2023-03-02T06:29:00.642Z,82.37
2023-03-02T06:31:31.268Z,129.37
2023-03-02T06:33:59.735Z,181.30
2023-03-02T06:36:28.861Z,117.37
2023-03-02T06:38:57.436Z,85.87
2023-03-02T06:41:26.402Z,71.53
2023-03-02T06:43:55.182Z,61.50
2023-03-02T06:46:23.842Z,36.53
2023-03-02T06:48:53.688Z,89.33
2023-03-02T06:51:22.242Z,41.40
2023-03-02T06:53:50.724Z,43.10
2023-03-02T06:56:19.298Z,42.27
2023-03-02T06:58:47.797Z,81.87
2023-03-02T07:01:16.823Z,32.97
2023-03-02T07:03:45.389Z,42.20
2023-03-02T07:06:15.783Z,32.67
2023-03-02T07:08:44.174Z,45.17
2023-03-02T07:11:14.001Z,36.03
2023-03-02T07:13:42.575Z,28.03
2023-03-02T07:16:12.918Z,30.30
2023-03-02T07:18:41.871Z,29.27
2023-03-02T07:21:10.445Z,26.87
2023-03-02T07:23:40.720Z,29.93
2023-03-02T07:26:09.172Z,26.77
2023-03-02T07:28:39.796Z,18.23
2023-03-02T07:31:09.013Z,19.03
2023-03-02T07:33:38.311Z,18.17
2023-03-02T07:36:07.912Z,26.43
2023-03-02T07:38:40.001Z,23.03
2023-03-02T07:41:09.342Z,21.07
2023-03-02T07:43:37.711Z,14.43
2023-03-02T07:46:06.834Z,16.30
2023-03-02T07:48:35.573Z,23.40
2023-03-02T07:51:06.187Z,16.70
2023-03-02T07:53:34.952Z,19.53
2023-03-02T07:56:09.482Z,22.33
2023-03-02T07:58:38.446Z,18.97
2023-03-02T08:01:07.295Z,23.87
2023-03-02T08:03:35.965Z,22.37
2023-03-02T08:06:07.113Z,20.47
2023-03-02T08:08:36.049Z,16.97
2023-03-02T08:11:10.617Z,16.00
2023-03-02T08:13:40.769Z,17.30
2023-03-02T08:16:10.846Z,16.40
2023-03-02T08:18:40.683Z,11.77
2023-03-02T08:21:14.586Z,14.87
2023-03-02T08:23:43.459Z,11.47
2023-03-02T08:26:15.837Z,14.53
2023-03-02T08:28:46.136Z,11.47
2023-03-02T08:31:14.966Z,15.93
2023-03-02T08:33:44.656Z,11.27
2023-03-02T08:36:15.285Z,10.60
2023-03-02T08:38:43.765Z,10.30
2023-03-02T08:41:15.427Z,11.10
2023-03-02T08:43:44.015Z,10.17
2023-03-02T08:46:14.065Z,11.83
2023-03-02T08:48:43.187Z,12.10
2023-03-02T08:51:14.620Z,11.10
2023-03-02T08:53:43.991Z,9.93
2023-03-02T08:56:19.318Z,10.40
2023-03-02T08:58:47.928Z,11.30
2023-03-02T09:01:17.983Z,11.67
2023-03-02T09:03:46.688Z,10.73
2023-03-02T09:06:15.734Z,14.03
2023-03-02T09:08:44.546Z,11.60
2023-03-02T09:11:12.885Z,26.83
2023-03-02T09:13:43.483Z,9.67
2023-03-02T09:16:12.433Z,9.57
2023-03-02T09:18:41.398Z,9.57
2023-03-02T09:21:10.720Z,8.43
2023-03-02T09:23:39.050Z,15.10
2023-03-02T09:26:07.693Z,11.37
2023-03-02T09:28:37.086Z,10.73
2023-03-02T09:31:09.633Z,10.90
2023-03-02T09:33:38.041Z,11.33
2023-03-02T09:36:11.577Z,10.70
2023-03-02T09:38:40.206Z,11.40
2023-03-02T09:41:29.133Z,13.40
2023-03-02T09:44:05.540Z,11.03
2023-03-02T09:46:37.704Z,11.50
2023-03-02T09:49:15.745Z,11.53
2023-03-02T09:51:48.353Z,13.27
2023-03-02T09:54:20.617Z,13.13
2023-03-02T09:56:51.268Z,12.90
2023-03-02T09:59:23.145Z,14.23
2023-03-02T10:01:58.067Z,10.40
2023-03-02T10:04:29.141Z,8.80
2023-03-02T10:07:00.389Z,9.43
2023-03-02T10:09:29.174Z,10.13
2023-03-02T10:12:15.912Z,10.13
2023-03-02T10:14:47.452Z,9.87
2023-03-02T10:17:31.246Z,12.27
2023-03-02T10:20:03.725Z,8.20
2023-03-02T10:22:36.334Z,10.23
2023-03-02T10:25:16.074Z,10.20
2023-03-02T10:27:47.170Z,12.43
2023-03-02T10:30:20.698Z,12.03
2023-03-02T10:32:52.358Z,9.23
2023-03-02T10:35:23.310Z,11.67
2023-03-02T10:37:53.094Z,13.33
2023-03-02T10:40:33.706Z,12.87
2023-03-02T10:43:02.769Z,12.00
2023-03-02T10:45:32.567Z,14.43
2023-03-02T10:48:03.569Z,14.30
2023-03-02T10:50:32.345Z,14.60
2023-03-02T10:53:03.555Z,14.13
2023-03-02T10:55:34.497Z,16.50
2023-03-02T10:58:05.664Z,15.47
2023-03-02T11:00:36.899Z,13.47
2023-03-02T11:03:21.100Z,20.10
2023-03-02T11:05:50.255Z,17.17
2023-03-02T11:08:20.250Z,16.23
2023-03-02T11:10:56.943Z,17.97
2023-03-02T11:13:31.042Z,29.53
2023-03-02T11:16:01.092Z,18.63
2023-03-02T11:18:34.564Z,20.27
2023-03-02T11:21:05.831Z,19.83
2023-03-02T11:23:42.579Z,27.53
2023-03-02T11:26:19.486Z,28.27
2023-03-02T11:28:51.000Z,22.77
2023-03-02T11:31:25.273Z,19.17
2023-03-02T11:34:16.797Z,20.83
2023-03-02T11:36:50.662Z,22.73
2023-03-02T11:39:23.024Z,19.17
2023-03-02T11:41:52.744Z,19.33
2023-03-02T11:44:24.283Z,20.47
2023-03-02T11:46:59.209Z,19.80
2023-03-02T11:49:37.226Z,18.87
2023-03-02T11:52:06.067Z,25.30
2023-03-02T11:54:39.675Z,27.13
2023-03-02T11:57:14.874Z,25.07
2023-03-02T11:59:43.654Z,21.57
2023-03-02T12:02:14.506Z,24.13
2023-03-02T12:04:44.903Z,25.63
2023-03-02T12:07:24.757Z,26.63
2023-03-02T12:10:02.385Z,27.33
2023-03-02T12:12:44.749Z,26.90
2023-03-02T12:15:30.152Z,28.50
2023-03-02T12:17:58.733Z,27.60
2023-03-02T12:20:30.071Z,28.97
2023-03-02T12:23:09.087Z,26.83
2023-03-02T12:25:41.881Z,22.67
2023-03-02T12:28:29.163Z,24.87
2023-03-02T12:31:03.524Z,24.10
2023-03-02T12:33:32.047Z,28.13
2023-03-02T12:36:16.177Z,25.87
2023-03-02T12:38:48.638Z,27.47
2023-03-02T12:41:25.496Z,30.43
2023-03-02T12:44:08.607Z,28.80
2023-03-02T12:46:40.279Z,22.73
2023-03-02T12:49:28.860Z,24.27
2023-03-02T12:52:01.206Z,24.73
2023-03-02T12:54:32.047Z,23.10
2023-03-02T12:57:09.081Z,25.20
2023-03-02T12:59:38.119Z,25.10
2023-03-02T13:02:19.057Z,23.57
2023-03-02T13:04:54.960Z,23.10
2023-03-02T13:07:27.825Z,27.17
2023-03-02T13:09:59.275Z,25.03
2023-03-02T13:12:29.337Z,24.07
2023-03-02T13:14:59.620Z,25.90
2023-03-02T13:17:31.068Z,23.83
2023-03-02T13:20:00.983Z,19.87
2023-03-02T13:22:31.126Z,21.40
2023-03-02T13:25:02.257Z,21.57
2023-03-02T13:27:31.558Z,22.07
2023-03-02T13:30:10.400Z,24.07
2023-03-02T13:32:41.435Z,19.53
2023-03-02T13:35:17.704Z,22.67
2023-03-02T13:37:47.402Z,18.80
2023-03-02T13:40:34.317Z,21.00
2023-03-02T13:43:02.902Z,21.13
2023-03-02T13:45:33.136Z,19.87
2023-03-02T13:48:02.509Z,22.53
2023-03-02T13:50:32.977Z,20.50
2023-03-02T13:53:07.176Z,19.50
2023-03-02T13:55:36.338Z,22.03
2023-03-02T13:58:04.938Z,19.20
2023-03-02T14:00:35.449Z,18.47
2023-03-02T14:03:04.040Z,18.20
2023-03-02T14:05:33.938Z,21.63
2023-03-02T14:08:04.192Z,17.80
2023-03-02T14:10:32.690Z,16.43
2023-03-02T14:13:05.510Z,18.50
2023-03-02T14:15:34.229Z,16.93
2023-03-02T14:18:03.233Z,17.03
2023-03-02T14:20:31.976Z,15.77
2023-03-02T14:23:03.562Z,13.63
2023-03-02T14:25:33.641Z,17.27
2023-03-02T14:28:02.087Z,17.50
2023-03-02T14:30:30.548Z,17.77
2023-03-02T14:32:59.140Z,16.30
2023-03-02T14:35:27.689Z,17.93
2023-03-02T14:37:56.218Z,18.63
2023-03-02T14:40:27.287Z,16.57
2023-03-02T14:42:57.188Z,19.03
2023-03-02T14:45:26.082Z,20.67
2023-03-02T14:47:54.577Z,17.77
2023-03-02T14:50:23.752Z,16.57
2023-03-02T14:52:55.182Z,17.80
2023-03-02T14:55:27.533Z,15.50
2023-03-02T14:57:59.311Z,18.20
2023-03-02T15:00:28.456Z,17.53
2023-03-02T15:02:57.178Z,19.57
2023-03-02T15:05:25.802Z,19.43
2023-03-02T15:07:58.750Z,17.70
2023-03-02T15:10:27.375Z,19.30
2023-03-02T15:12:57.201Z,17.40
2023-03-02T15:15:26.598Z,18.87
2023-03-02T15:17:55.081Z,17.70
2023-03-02T15:20:23.735Z,17.23
2023-03-02T15:22:53.244Z,19.17
2023-03-02T15:25:24.086Z,20.47
2023-03-02T15:27:52.760Z,17.53
2023-03-02T15:30:24.293Z,17.53
2023-03-02T15:32:54.924Z,18.33
2023-03-02T15:35:24.555Z,19.70
2023-03-02T15:37:53.729Z,18.80
2023-03-02T15:40:22.325Z,19.30
2023-03-02T15:42:51.212Z,18.43
2023-03-02T15:45:19.806Z,20.57
2023-03-02T15:47:49.836Z,17.87
2023-03-02T15:50:18.855Z,22.27
2023-03-02T15:52:47.122Z,19.07
2023-03-02T15:55:15.673Z,18.70
2023-03-02T15:57:44.383Z,15.03
2023-03-02T16:00:14.301Z,16.50
2023-03-02T16:02:42.637Z,15.27
2023-03-02T16:05:12.599Z,14.53
2023-03-02T16:07:41.147Z,16.10
2023-03-02T16:10:15.323Z,17.07
2023-03-02T16:12:43.780Z,14.93
2023-03-02T16:15:12.716Z,15.27
2023-03-02T16:17:41.119Z,15.63
2023-03-02T16:20:10.943Z,17.50
2023-03-02T16:22:41.074Z,16.87
2023-03-02T16:25:10.261Z,16.70
2023-03-02T16:27:38.968Z,18.67
2023-03-02T16:30:08.643Z,16.37
2023-03-02T16:32:37.192Z,18.83
2023-03-02T16:35:06.155Z,19.83
2023-03-02T16:37:35.246Z,21.30
2023-03-02T16:40:06.080Z,19.93
2023-03-02T16:42:34.488Z,18.03
2023-03-02T16:45:02.756Z,18.57
2023-03-02T16:47:31.861Z,26.37
2023-03-02T16:50:00.620Z,23.27
2023-03-02T16:52:28.997Z,20.27
2023-03-02T16:54:57.676Z,19.07
2023-03-02T16:57:27.458Z,19.10
2023-03-02T16:59:55.994Z,19.77
2023-03-02T17:02:24.443Z,20.50
2023-03-02T17:04:52.836Z,22.60
2023-03-02T17:07:21.264Z,22.07
2023-03-02T17:09:49.713Z,25.90
2023-03-02T17:12:18.271Z,26.77
2023-03-02T17:14:48.231Z,27.63
2023-03-02T17:17:16.833Z,26.33
2023-03-02T17:19:45.260Z,26.00
2023-03-02T17:22:14.356Z,21.63
2023-03-02T17:24:42.866Z,19.63
2023-03-02T17:27:24.235Z,22.47
2023-03-02T17:29:55.803Z,20.93
2023-03-02T17:32:25.023Z,18.90
2023-03-02T17:34:53.685Z,19.77
2023-03-02T17:37:22.231Z,18.90
2023-03-02T17:39:51.219Z,18.30
2023-03-02T17:42:20.226Z,18.87
2023-03-02T17:44:48.797Z,14.80
2023-03-02T17:47:18.776Z,14.13
2023-03-02T17:49:47.200Z,17.53
2023-03-02T17:52:16.026Z,19.10
2023-03-02T17:54:44.825Z,21.17
2023-03-02T17:57:13.980Z,18.70
2023-03-02T17:59:42.665Z,16.60
2023-03-02T18:02:11.604Z,14.27
2023-03-02T18:04:41.673Z,13.77
2023-03-02T18:07:10.189Z,17.80
2023-03-02T18:09:39.063Z,19.93
2023-03-02T18:12:08.959Z,19.20
2023-03-02T18:14:38.709Z,16.30
2023-03-02T18:17:09.432Z,16.93
2023-03-02T18:19:38.389Z,17.83
2023-03-02T18:22:08.267Z,17.00
2023-03-02T18:24:36.719Z,12.77
2023-03-02T18:27:05.689Z,22.87
2023-03-02T18:29:34.391Z,15.47
2023-03-02T18:32:02.770Z,18.67
2023-03-02T18:34:31.184Z,16.93
2023-03-02T18:36:59.589Z,25.17
2023-03-02T18:39:29.314Z,21.03
2023-03-02T18:41:57.721Z,25.57
2023-03-02T18:44:28.147Z,28.03
2023-03-02T18:46:56.787Z,29.77
2023-03-02T18:49:25.362Z,30.80
2023-03-02T18:51:55.239Z,25.67
2023-03-02T18:54:24.685Z,22.17
2023-03-02T18:56:54.569Z,20.50
2023-03-02T18:59:22.879Z,32.67
2023-03-02T19:01:51.449Z,32.80
2023-03-02T19:04:26.462Z,24.77
2023-03-02T19:06:56.145Z,32.97
2023-03-02T19:09:24.839Z,24.20
2023-03-02T19:11:54.897Z,30.87
2023-03-02T19:14:23.421Z,29.07
2023-03-02T19:16:51.973Z,28.07
2023-03-02T19:19:20.728Z,32.53
2023-03-02T19:21:49.286Z,31.30
2023-03-02T19:24:17.859Z,39.43
2023-03-02T19:26:46.561Z,29.10
2023-03-02T19:29:16.268Z,26.00
2023-03-02T19:31:44.760Z,22.80
2023-03-02T19:34:13.301Z,18.70
2023-03-02T19:36:41.842Z,20.20
2023-03-02T19:39:12.017Z,22.63
2023-03-02T19:41:40.810Z,17.97
2023-03-02T19:44:09.298Z,19.53
2023-03-02T19:46:39.069Z,18.67
2023-03-02T19:49:07.587Z,21.27
2023-03-02T19:51:36.009Z,23.90
2023-03-02T19:54:04.867Z,23.03
2023-03-02T19:56:35.276Z,15.57
2023-03-02T19:59:04.306Z,19.10
2023-03-02T20:01:32.848Z,19.27
2023-03-02T20:04:02.692Z,21.77
2023-03-02T20:06:33.415Z,16.30
2023-03-02T20:09:03.916Z,20.10
2023-03-02T20:11:32.893Z,21.63
2023-03-02T20:14:02.951Z,21.97
2023-03-02T20:16:32.026Z,26.93
2023-03-02T20:19:02.500Z,24.43
2023-03-02T20:21:31.353Z,25.77
2023-03-02T20:24:00.185Z,29.57
2023-03-02T20:26:29.122Z,24.80
2023-03-02T20:28:58.475Z,23.90
2023-03-02T20:31:27.164Z,15.73
2023-03-02T20:33:57.017Z,14.93
2023-03-02T20:36:32.722Z,16.17
2023-03-02T20:39:04.800Z,14.27
2023-03-02T20:41:33.455Z,13.87
2023-03-02T20:44:02.239Z,11.67
2023-03-02T20:46:33.609Z,13.27
2023-03-02T20:49:02.993Z,14.23
2023-03-02T20:51:33.559Z,12.90
2023-03-02T20:54:02.910Z,15.00
2023-03-02T20:56:31.509Z,15.27
2023-03-02T20:58:59.973Z,14.33
2023-03-02T21:01:29.846Z,15.90
2023-03-02T21:03:58.619Z,12.43
2023-03-02T21:06:30.067Z,13.37
2023-03-02T21:09:00.341Z,13.53
2023-03-02T21:11:29.359Z,14.00
2023-03-02T21:13:59.555Z,11.60
2023-03-02T21:16:29.903Z,11.27
2023-03-02T21:18:58.238Z,12.03
2023-03-02T21:21:40.447Z,9.40
2023-03-02T21:24:11.385Z,11.37
2023-03-02T21:26:41.534Z,10.87
2023-03-02T21:29:11.897Z,12.47
2023-03-02T21:31:40.786Z,10.27
2023-03-02T21:34:09.248Z,9.07
2023-03-02T21:36:37.955Z,11.13
2023-03-02T21:39:07.764Z,10.10
2023-03-02T21:41:37.773Z,10.40
2023-03-02T21:44:07.558Z,10.67
2023-03-02T21:46:37.370Z,10.83
2023-03-02T21:49:05.925Z,10.43
2023-03-02T21:51:34.839Z,9.77
2023-03-02T21:54:03.530Z,10.37
2023-03-02T21:56:32.016Z,10.83
2023-03-02T21:59:01.751Z,12.90
2023-03-02T22:01:32.872Z,13.57
2023-03-02T22:04:01.953Z,11.17
2023-03-02T22:06:32.699Z,8.60
2023-03-02T22:09:01.829Z,8.57
2023-03-02T22:11:32.450Z,8.40
2023-03-02T22:14:05.254Z,8.07
2023-03-02T22:16:37.020Z,7.77
2023-03-02T22:19:19.488Z,9.00
2023-03-02T22:21:49.294Z,9.20
2023-03-02T22:24:22.636Z,9.57
2023-03-02T22:26:58.456Z,9.93
2023-03-02T22:29:29.735Z,8.00
2023-03-02T22:32:00.295Z,7.87
2023-03-02T22:34:31.106Z,8.77
2023-03-02T22:37:02.527Z,9.97
2023-03-02T22:39:32.929Z,8.80
2023-03-02T22:42:08.597Z,10.37
2023-03-02T22:44:38.430Z,10.63
2023-03-02T22:47:10.142Z,10.00
2023-03-02T22:49:38.724Z,9.67
2023-03-02T22:52:13.658Z,9.43
2023-03-02T22:54:42.509Z,10.43
2023-03-02T22:57:31.053Z,10.33
2023-03-02T23:00:32.222Z,12.17
2023-03-02T23:03:00.542Z,17.17
2023-03-02T23:05:30.977Z,16.80
2023-03-02T23:08:07.756Z,19.60
2023-03-02T23:10:36.136Z,16.43
2023-03-02T23:13:04.931Z,18.50
2023-03-02T23:15:36.821Z,17.97
2023-03-02T23:18:13.639Z,14.90
2023-03-02T23:20:42.267Z,14.50
2023-03-02T23:23:10.825Z,16.73
2023-03-02T23:25:39.211Z,27.20
2023-03-02T23:28:07.863Z,43.97
2023-03-02T23:30:38.098Z,44.10
2023-03-02T23:33:06.603Z,49.67
2023-03-02T23:35:35.216Z,25.83
2023-03-02T23:38:03.633Z,30.07
2023-03-02T23:40:32.067Z,42.87
2023-03-02T23:43:00.501Z,21.20
2023-03-02T23:45:29.087Z,20.90
2023-03-02T23:47:59.693Z,27.40
2023-03-02T23:50:28.358Z,39.20
2023-03-02T23:52:56.985Z,24.47
2023-03-02T23:55:25.360Z,18.83
2023-03-02T23:57:54.255Z,31.13
